createdAt,value
2023-01-23T00:01:52.230Z,17.50
2023-01-23T00:04:16.021Z,18.33
2023-01-23T00:06:41.620Z,18.50
2023-01-23T00:09:05.427Z,18.23
2023-01-23T00:11:32.013Z,17.67
2023-01-23T00:13:55.730Z,18.40
2023-01-23T00:16:22.205Z,17.67
2023-01-23T00:18:46.597Z,18.50
2023-01-23T00:21:12.583Z,18.07
2023-01-23T00:23:37.865Z,16.63
2023-01-23T00:26:06.193Z,16.70
2023-01-23T00:28:29.692Z,17.47
2023-01-23T00:30:53.444Z,18.83
2023-01-23T00:33:17.131Z,16.93
2023-01-23T00:35:40.798Z,16.97
2023-01-23T00:38:04.409Z,18.47
2023-01-23T00:40:29.460Z,17.57
2023-01-23T00:42:52.987Z,16.37
2023-01-23T00:45:16.700Z,17.97
2023-01-23T00:47:40.211Z,17.73
2023-01-23T00:50:03.800Z,17.57
2023-01-23T00:52:27.876Z,16.90
2023-01-23T00:54:51.469Z,17.43
2023-01-23T00:57:16.425Z,17.43
2023-01-23T00:59:40.016Z,17.97
2023-01-23T01:02:03.714Z,17.93
2023-01-23T01:04:27.743Z,18.93
2023-01-23T01:06:51.256Z,17.57
2023-01-23T01:09:15.038Z,17.93
2023-01-23T01:11:38.608Z,19.30
2023-01-23T01:14:03.593Z,16.80
2023-01-23T01:16:27.199Z,18.33
2023-01-23T01:18:50.937Z,17.27
2023-01-23T01:21:17.217Z,17.63
2023-01-23T01:23:41.983Z,17.40
2023-01-23T01:26:06.450Z,17.40
2023-01-23T01:28:33.112Z,17.73
2023-01-23T01:30:58.564Z,18.90
2023-01-23T01:33:25.791Z,17.60
2023-01-23T01:35:49.338Z,18.23
2023-01-23T01:38:12.935Z,18.17
2023-01-23T01:40:37.547Z,18.43
2023-01-23T01:43:07.864Z,18.10
2023-01-23T01:46:17.146Z,16.57
2023-01-23T01:48:47.438Z,17.93
2023-01-23T01:51:18.544Z,18.00
2023-01-23T01:53:42.963Z,18.90
2023-01-23T01:56:08.684Z,19.27
2023-01-23T01:58:32.966Z,18.47
2023-01-23T02:00:57.197Z,19.37
2023-01-23T02:03:22.564Z,18.50
2023-01-23T02:05:49.865Z,19.63
2023-01-23T02:08:20.734Z,18.67
2023-01-23T02:10:45.353Z,17.87
2023-01-23T02:13:25.994Z,19.20
2023-01-23T02:15:50.480Z,18.77
2023-01-23T02:18:14.171Z,18.73
2023-01-23T02:20:39.787Z,19.43
2023-01-23T02:23:12.670Z,19.10
2023-01-23T02:25:42.364Z,18.97
2023-01-23T02:28:09.917Z,18.03
2023-01-23T02:30:35.396Z,18.50
2023-01-23T02:33:10.498Z,20.10
2023-01-23T02:35:34.423Z,19.50
2023-01-23T02:38:07.084Z,19.07
2023-01-23T02:40:36.595Z,18.10
2023-01-23T02:43:02.289Z,19.40
2023-01-23T02:45:28.503Z,18.27
2023-01-23T02:47:52.117Z,18.90
2023-01-23T02:50:18.898Z,18.77
2023-01-23T02:52:42.635Z,19.47
2023-01-23T02:55:07.506Z,20.50
2023-01-23T02:57:31.097Z,19.63
2023-01-23T03:00:12.368Z,19.73
2023-01-23T03:02:38.369Z,19.83
2023-01-23T03:05:01.903Z,19.90
2023-01-23T03:07:25.569Z,19.80
2023-01-23T03:09:49.864Z,19.83
2023-01-23T03:12:14.715Z,20.93
2023-01-23T03:14:38.277Z,20.37
2023-01-23T03:17:01.902Z,20.77
2023-01-23T03:19:31.782Z,19.57
2023-01-23T03:21:55.868Z,21.00
2023-01-23T03:24:20.704Z,20.33
2023-01-23T03:26:47.038Z,20.17
2023-01-23T03:29:33.646Z,22.10
2023-01-23T03:31:57.418Z,22.77
2023-01-23T03:34:22.934Z,21.83
2023-01-23T03:36:47.974Z,20.87
2023-01-23T03:39:28.863Z,21.37
2023-01-23T03:41:53.499Z,21.30
2023-01-23T03:44:20.246Z,20.17
2023-01-23T03:46:44.623Z,18.63
2023-01-23T03:49:08.320Z,20.27
2023-01-23T03:51:31.987Z,21.37
2023-01-23T03:53:56.895Z,20.40
2023-01-23T03:56:20.555Z,21.43
2023-01-23T03:58:44.141Z,21.10
2023-01-23T04:01:10.675Z,21.00
2023-01-23T04:03:36.542Z,20.40
2023-01-23T04:06:01.359Z,20.33
2023-01-23T04:08:24.945Z,21.10
2023-01-23T04:10:51.624Z,20.93
2023-01-23T04:13:15.207Z,20.43
2023-01-23T04:15:38.888Z,20.27
2023-01-23T04:18:03.743Z,20.03
2023-01-23T04:20:27.313Z,22.00
2023-01-23T04:22:51.742Z,20.80
2023-01-23T04:25:15.740Z,21.60
2023-01-23T04:27:40.652Z,19.87
2023-01-23T04:30:07.432Z,20.93
2023-01-23T04:32:31.861Z,21.63
2023-01-23T04:34:55.479Z,21.57
2023-01-23T04:37:19.254Z,20.60
2023-01-23T04:39:43.054Z,21.60
2023-01-23T04:42:06.724Z,22.40
2023-01-23T04:45:03.579Z,20.97
2023-01-23T04:47:29.986Z,22.27
2023-01-23T04:49:54.739Z,20.50
2023-01-23T04:52:18.404Z,22.10
2023-01-23T04:54:50.119Z,22.33
2023-01-23T04:57:13.700Z,21.57
2023-01-23T04:59:37.731Z,21.47
2023-01-23T05:02:03.438Z,21.57
2023-01-23T05:04:33.955Z,20.43
2023-01-23T05:06:57.537Z,21.40
2023-01-23T05:09:21.234Z,21.53
2023-01-23T05:11:48.666Z,22.33
2023-01-23T05:14:13.125Z,22.20
2023-01-23T05:16:38.134Z,21.93
2023-01-23T05:19:15.932Z,21.50
2023-01-23T05:21:40.018Z,21.13
2023-01-23T05:24:07.861Z,21.50
2023-01-23T05:26:31.498Z,21.13
2023-01-23T05:28:55.193Z,21.43
2023-01-23T05:31:18.914Z,21.83
2023-01-23T05:34:00.235Z,21.57
2023-01-23T05:36:25.764Z,21.60
2023-01-23T05:38:49.304Z,20.53
2023-01-23T05:41:13.022Z,20.47
2023-01-23T05:43:54.936Z,21.53
2023-01-23T05:46:27.563Z,21.73
2023-01-23T05:48:53.759Z,20.53
2023-01-23T05:51:18.106Z,20.40
2023-01-23T05:53:43.255Z,21.27
2023-01-23T05:56:08.561Z,21.03
2023-01-23T05:58:40.037Z,21.67
2023-01-23T06:01:26.444Z,21.50
2023-01-23T06:04:08.698Z,21.53
2023-01-23T06:06:43.247Z,22.47
2023-01-23T06:09:08.234Z,21.03
2023-01-23T06:11:31.833Z,21.37
2023-01-23T06:13:55.489Z,21.00
2023-01-23T06:16:19.666Z,21.63
2023-01-23T06:18:43.353Z,20.37
2023-01-23T06:21:07.595Z,21.03
2023-01-23T06:23:33.388Z,21.87
2023-01-23T06:26:02.071Z,20.27
2023-01-23T06:28:25.905Z,21.40
2023-01-23T06:30:49.557Z,20.70
2023-01-23T06:33:21.713Z,20.57
2023-01-23T06:35:45.522Z,20.20
2023-01-23T06:38:09.275Z,21.63
2023-01-23T06:40:33.059Z,20.90
2023-01-23T06:43:25.222Z,20.07
2023-01-23T06:45:50.316Z,20.73
2023-01-23T06:48:16.496Z,21.33
2023-01-23T06:50:41.409Z,21.43
2023-01-23T06:53:05.488Z,22.20
2023-01-23T06:55:29.490Z,20.17
2023-01-23T06:57:53.664Z,20.53
2023-01-23T07:00:20.395Z,20.87
2023-01-23T07:02:45.737Z,20.03
2023-01-23T07:05:10.609Z,20.87
2023-01-23T07:07:34.147Z,21.23
2023-01-23T07:09:57.821Z,20.77
2023-01-23T07:12:22.657Z,21.10
2023-01-23T07:14:46.534Z,19.73
2023-01-23T07:17:15.679Z,20.83
2023-01-23T07:19:39.256Z,19.67
2023-01-23T07:22:06.459Z,20.03
2023-01-23T07:24:32.474Z,21.30
2023-01-23T07:26:56.004Z,19.40
2023-01-23T07:29:19.602Z,19.60
2023-01-23T07:31:43.132Z,19.90
2023-01-23T07:34:08.207Z,20.07
2023-01-23T07:36:31.753Z,19.73
2023-01-23T07:38:56.484Z,21.47
2023-01-23T07:41:19.985Z,20.80
2023-01-23T07:43:43.574Z,21.13
2023-01-23T07:46:08.048Z,19.87
2023-01-23T07:48:31.737Z,20.20
2023-01-23T07:50:56.715Z,20.70
2023-01-23T07:53:20.379Z,20.27
2023-01-23T07:55:44.355Z,20.03
2023-01-23T07:58:07.951Z,19.37
2023-01-23T08:00:32.025Z,20.17
2023-01-23T08:02:55.759Z,19.57
2023-01-23T08:05:19.400Z,19.63
2023-01-23T08:07:44.486Z,20.23
2023-01-23T08:10:09.658Z,19.83
2023-01-23T08:12:33.232Z,20.40
2023-01-23T08:14:56.746Z,20.33
2023-01-23T08:17:21.182Z,20.20
2023-01-23T08:19:44.737Z,18.67
2023-01-23T08:22:08.426Z,19.80
2023-01-23T08:24:34.583Z,19.30
2023-01-23T08:26:58.205Z,19.83
2023-01-23T08:29:21.743Z,20.80
2023-01-23T08:31:45.852Z,21.00
2023-01-23T08:34:09.386Z,19.70
2023-01-23T08:36:33.272Z,19.63
2023-01-23T08:38:57.007Z,21.00
2023-01-23T08:41:21.980Z,20.40
2023-01-23T08:43:45.611Z,19.53
2023-01-23T08:46:10.534Z,20.17
2023-01-23T08:48:35.459Z,20.50
2023-01-23T08:51:04.635Z,19.97
2023-01-23T08:53:28.370Z,20.07
2023-01-23T08:55:51.936Z,20.07
2023-01-23T08:58:16.973Z,20.77
2023-01-23T09:00:40.941Z,19.13
2023-01-23T09:03:05.073Z,20.40
2023-01-23T09:05:28.963Z,19.70
2023-01-23T09:07:52.476Z,20.70
2023-01-23T09:10:16.004Z,20.57
2023-01-23T09:12:41.663Z,21.07
2023-01-23T09:15:07.950Z,20.27
2023-01-23T09:17:31.597Z,21.63
2023-01-23T09:19:55.431Z,20.03
2023-01-23T09:22:19.126Z,19.33
2023-01-23T09:24:42.717Z,20.10
2023-01-23T09:27:06.265Z,19.87
2023-01-23T09:29:30.018Z,19.93
2023-01-23T09:31:54.970Z,19.77
2023-01-23T09:34:18.606Z,21.00
2023-01-23T09:36:43.673Z,20.20
2023-01-23T09:39:07.351Z,20.50
2023-01-23T09:41:31.777Z,20.10
2023-01-23T09:44:00.390Z,21.53
2023-01-23T09:46:29.173Z,21.83
2023-01-23T09:49:00.916Z,21.00
2023-01-23T09:51:29.460Z,18.67
2023-01-23T09:53:56.270Z,20.30
2023-01-23T09:56:30.695Z,20.33
2023-01-23T09:59:17.550Z,18.60
2023-01-23T10:01:41.714Z,19.33
2023-01-23T10:04:10.356Z,19.33
2023-01-23T10:07:05.392Z,22.17
2023-01-23T10:09:50.637Z,21.90
2023-01-23T10:12:27.453Z,22.10
2023-01-23T10:15:14.080Z,19.13
2023-01-23T10:17:45.203Z,20.23
2023-01-23T10:20:40.417Z,20.20
2023-01-23T10:23:14.274Z,19.83
2023-01-23T10:25:41.021Z,20.00
2023-01-23T10:28:28.142Z,20.43
2023-01-23T10:30:57.688Z,20.10
2023-01-23T10:33:21.593Z,19.93
2023-01-23T10:35:53.250Z,19.27
2023-01-23T10:38:28.934Z,20.07
2023-01-23T10:41:10.260Z,19.80
2023-01-23T10:43:33.960Z,19.03
2023-01-23T10:45:57.493Z,20.13
2023-01-23T10:48:42.731Z,20.17
2023-01-23T10:51:33.549Z,20.30
2023-01-23T10:54:31.788Z,20.93
2023-01-23T10:56:58.765Z,20.83
2023-01-23T10:59:32.650Z,21.53
2023-01-23T11:02:03.980Z,20.53
2023-01-23T11:04:30.540Z,21.00
2023-01-23T11:07:07.647Z,20.97
2023-01-23T11:09:32.299Z,21.33
2023-01-23T11:12:07.281Z,20.97
2023-01-23T11:14:31.908Z,21.03
2023-01-23T11:17:04.194Z,20.80
2023-01-23T11:19:27.949Z,20.43
2023-01-23T11:21:57.461Z,21.07
2023-01-23T11:24:39.854Z,20.60
2023-01-23T11:27:10.224Z,20.70
2023-01-23T11:30:05.086Z,20.47
2023-01-23T11:32:30.839Z,20.83
2023-01-23T11:35:08.602Z,21.20
2023-01-23T11:37:37.468Z,19.83
2023-01-23T11:40:08.738Z,20.47
2023-01-23T11:42:32.355Z,20.03
2023-01-23T11:44:57.611Z,20.47
2023-01-23T11:47:47.211Z,20.77
2023-01-23T11:50:29.667Z,19.83
2023-01-23T11:53:03.711Z,19.43
2023-01-23T11:56:11.289Z,20.13
2023-01-23T11:59:47.100Z,20.53
2023-01-23T12:02:46.029Z,19.23
2023-01-23T12:05:47.291Z,18.17
2023-01-23T12:08:24.063Z,20.07
2023-01-23T12:11:02.522Z,20.33
2023-01-23T12:13:59.473Z,19.83
2023-01-23T12:16:33.474Z,19.90
2023-01-23T12:19:18.408Z,21.23
2023-01-23T12:21:51.000Z,19.83
2023-01-23T12:24:33.435Z,21.43
2023-01-23T12:27:06.455Z,20.57
2023-01-23T12:29:59.103Z,21.43
2023-01-23T12:32:45.409Z,19.57
2023-01-23T12:35:29.029Z,19.23
2023-01-23T12:38:11.626Z,19.40
2023-01-23T12:40:42.352Z,19.67
2023-01-23T12:43:14.557Z,19.73
2023-01-23T12:45:42.701Z,18.17
2023-01-23T12:48:14.014Z,17.93
2023-01-23T12:50:46.166Z,17.13
2023-01-23T12:53:14.166Z,18.03
2023-01-23T12:55:41.445Z,18.30
2023-01-23T12:58:09.806Z,17.37
2023-01-23T13:00:47.761Z,17.87
2023-01-23T13:03:44.904Z,17.23
2023-01-23T13:06:37.413Z,17.23
2023-01-23T13:09:17.831Z,15.80
2023-01-23T13:11:51.834Z,16.50
2023-01-23T13:14:29.180Z,16.83
2023-01-23T13:16:57.058Z,16.77
2023-01-23T13:19:44.366Z,16.97
2023-01-23T13:22:28.636Z,15.53
2023-01-23T13:25:12.673Z,16.27
2023-01-23T13:27:47.345Z,17.13
2023-01-23T13:30:44.688Z,17.10
2023-01-23T13:33:51.626Z,17.93
2023-01-23T13:36:26.491Z,16.67
2023-01-23T13:39:29.456Z,16.20
2023-01-23T13:42:27.879Z,17.33
2023-01-23T13:45:31.580Z,19.00
2023-01-23T14:21:41.829Z,16.77
2023-01-23T14:24:23.351Z,16.20
2023-01-23T14:26:51.182Z,16.30
2023-01-23T14:29:24.108Z,15.47
2023-01-23T14:31:47.969Z,15.50
2023-01-23T14:34:18.951Z,15.93
2023-01-23T14:36:47.648Z,14.93
2023-01-23T14:39:18.641Z,15.83
2023-01-23T14:41:43.756Z,15.70
2023-01-23T14:44:18.779Z,15.27
2023-01-23T14:46:44.319Z,15.40
2023-01-23T14:49:10.950Z,16.10
2023-01-23T14:51:34.714Z,15.57
2023-01-23T14:54:01.807Z,16.43
2023-01-23T14:56:30.178Z,14.93
2023-01-23T14:58:54.493Z,15.47
2023-01-23T15:01:18.431Z,14.40
2023-01-23T15:03:46.084Z,14.93
2023-01-23T15:06:15.531Z,14.50
2023-01-23T15:08:39.879Z,15.83
2023-01-23T15:11:04.922Z,14.10
2023-01-23T15:13:36.463Z,14.47
2023-01-23T15:16:04.351Z,14.57
2023-01-23T15:18:31.218Z,14.13
2023-01-23T15:20:57.887Z,15.70
2023-01-23T15:23:31.452Z,14.10
2023-01-23T15:26:24.897Z,14.13
2023-01-23T15:28:52.887Z,15.97
2023-01-23T15:31:30.050Z,16.77
2023-01-23T15:33:53.992Z,17.97
2023-01-23T15:36:27.667Z,20.50
2023-01-23T15:38:51.548Z,15.23
2023-01-23T15:41:17.337Z,14.90
2023-01-23T15:43:44.897Z,15.70
2023-01-23T15:46:11.998Z,15.50
2023-01-23T15:48:35.649Z,14.67
2023-01-23T15:50:59.305Z,15.33
2023-01-23T15:53:24.338Z,16.70
2023-01-23T15:55:47.942Z,17.00
2023-01-23T15:58:15.074Z,19.50
2023-01-23T16:00:38.653Z,17.03
2023-01-23T16:03:02.305Z,19.37
2023-01-23T16:05:28.925Z,21.57
2023-01-23T16:07:52.982Z,19.97
2023-01-23T16:10:23.092Z,17.97
2023-01-23T16:12:48.846Z,17.50
2023-01-23T16:15:17.764Z,17.43
2023-01-23T16:17:41.342Z,16.40
2023-01-23T16:20:05.797Z,19.63
2023-01-23T16:22:30.098Z,18.03
2023-01-23T16:24:54.291Z,18.73
2023-01-23T16:27:25.140Z,18.87
2023-01-23T16:29:49.541Z,19.00
2023-01-23T16:32:13.390Z,18.07
2023-01-23T16:34:37.163Z,22.57
2023-01-23T16:37:01.953Z,19.73
2023-01-23T16:39:28.884Z,22.47
2023-01-23T16:41:54.582Z,19.07
2023-01-23T16:44:22.112Z,18.70
2023-01-23T16:46:45.941Z,19.17
2023-01-23T16:49:09.657Z,17.50
2023-01-23T16:51:35.104Z,18.47
2023-01-23T16:54:05.964Z,17.17
2023-01-23T16:56:39.360Z,18.60
2023-01-23T16:59:05.769Z,19.53
2023-01-23T17:01:39.005Z,18.20
2023-01-23T17:04:05.229Z,20.30
2023-01-23T17:06:28.955Z,19.93
2023-01-23T17:08:53.710Z,22.67
2023-01-23T17:11:26.095Z,17.80
2023-01-23T17:13:51.731Z,17.53
2023-01-23T17:16:26.414Z,17.80
2023-01-23T17:18:52.911Z,19.83
2023-01-23T17:21:20.639Z,18.93
2023-01-23T17:23:44.377Z,19.30
2023-01-23T17:26:15.488Z,19.47
2023-01-23T17:28:39.154Z,21.27
2023-01-23T17:31:02.840Z,21.30
2023-01-23T17:33:31.974Z,18.23
2023-01-23T17:35:57.016Z,19.37
2023-01-23T17:38:23.645Z,19.90
2023-01-23T17:40:47.518Z,25.40
2023-01-23T17:43:13.323Z,20.67
2023-01-23T17:45:36.857Z,21.63
2023-01-23T17:48:01.481Z,21.63
2023-01-23T17:50:26.889Z,19.77
2023-01-23T17:52:53.735Z,18.90
2023-01-23T17:55:19.335Z,18.37
2023-01-23T17:57:43.069Z,18.20
2023-01-23T18:00:09.442Z,18.23
2023-01-23T18:02:33.668Z,17.47
2023-01-23T18:04:57.710Z,18.47
2023-01-23T18:07:21.367Z,20.80
2023-01-23T18:09:46.326Z,19.47
2023-01-23T18:12:16.357Z,20.13
2023-01-23T18:14:48.628Z,19.47
2023-01-23T18:17:28.752Z,19.87
2023-01-23T18:19:54.084Z,17.50
2023-01-23T18:22:18.423Z,20.27
2023-01-23T18:24:42.831Z,19.47
2023-01-23T18:27:21.085Z,17.07
2023-01-23T18:30:05.217Z,19.53
2023-01-23T18:32:59.734Z,20.83
2023-01-23T18:35:36.344Z,17.30
2023-01-23T18:38:10.813Z,18.27
2023-01-23T18:40:42.285Z,17.67
2023-01-23T18:43:21.311Z,20.47
2023-01-23T18:45:45.829Z,17.43
2023-01-23T18:48:24.699Z,19.67
2023-01-23T18:51:06.150Z,19.67
2023-01-23T18:53:52.413Z,17.83
2023-01-23T18:56:29.692Z,18.87
2023-01-23T18:59:12.214Z,19.20
2023-01-23T19:01:45.220Z,19.67
2023-01-23T19:04:14.960Z,17.97
2023-01-23T19:06:39.456Z,17.30
2023-01-23T19:09:03.759Z,17.07
2023-01-23T19:11:37.804Z,17.67
2023-01-23T19:14:15.507Z,16.67
2023-01-23T19:16:45.704Z,16.57
2023-01-23T19:19:19.881Z,17.10
2023-01-23T19:21:47.096Z,19.77
2023-01-23T19:24:11.434Z,20.40
2023-01-23T19:26:38.288Z,20.60
2023-01-23T19:29:19.896Z,19.33
2023-01-23T19:32:03.049Z,19.10
2023-01-23T19:34:28.056Z,17.73
2023-01-23T19:36:51.560Z,18.03
2023-01-23T19:39:15.167Z,18.37
2023-01-23T19:41:43.985Z,18.67
2023-01-23T19:44:12.576Z,17.93
2023-01-23T19:46:36.745Z,17.87
2023-01-23T19:49:02.226Z,17.10
2023-01-23T19:51:28.072Z,16.70
2023-01-23T19:53:51.634Z,17.17
2023-01-23T19:56:18.213Z,16.57
2023-01-23T19:58:42.568Z,17.43
2023-01-23T20:01:18.972Z,17.93
2023-01-23T20:03:42.590Z,17.67
2023-01-23T20:06:06.980Z,17.93
2023-01-23T20:08:30.609Z,17.43
2023-01-23T20:10:54.168Z,17.03
2023-01-23T20:13:17.961Z,17.40
2023-01-23T20:15:41.516Z,16.93
2023-01-23T20:18:06.783Z,16.80
2023-01-23T20:20:30.334Z,17.97
2023-01-23T20:22:55.483Z,17.30
2023-01-23T20:25:19.501Z,17.07
2023-01-23T20:27:44.476Z,18.57
2023-01-23T20:30:11.872Z,18.37
2023-01-23T20:32:35.931Z,17.17
2023-01-23T20:35:01.418Z,16.60
2023-01-23T20:37:25.251Z,16.17
2023-01-23T20:39:48.856Z,16.67
2023-01-23T20:42:12.480Z,16.40
2023-01-23T20:44:35.991Z,16.77
2023-01-23T20:46:59.600Z,16.80
2023-01-23T20:49:23.422Z,17.17
2023-01-23T20:51:48.374Z,17.63
2023-01-23T20:54:11.985Z,16.77
2023-01-23T20:56:35.644Z,16.80
2023-01-23T20:59:16.841Z,17.13
2023-01-23T21:01:59.264Z,17.13
2023-01-23T21:04:24.057Z,17.87
2023-01-23T21:06:49.123Z,17.20
2023-01-23T21:09:12.757Z,17.27
2023-01-23T21:11:36.333Z,16.33
2023-01-23T21:14:01.035Z,17.07
2023-01-23T21:16:24.585Z,16.80
2023-01-23T21:18:48.783Z,16.43
2023-01-23T21:21:15.558Z,15.67
2023-01-23T21:23:40.874Z,15.40
2023-01-23T21:26:06.565Z,16.53
2023-01-23T21:28:32.944Z,15.47
2023-01-23T21:30:56.720Z,16.33
2023-01-23T21:33:20.431Z,15.33
2023-01-23T21:35:49.056Z,15.70
2023-01-23T21:38:12.622Z,15.30
2023-01-23T21:40:37.542Z,15.47
2023-01-23T21:43:01.145Z,16.33
2023-01-23T21:45:26.137Z,15.30
2023-01-23T21:47:49.692Z,15.97
2023-01-23T21:50:17.552Z,15.43
2023-01-23T21:52:41.187Z,15.73
2023-01-23T21:55:05.067Z,16.47
2023-01-23T21:57:30.090Z,16.20
2023-01-23T22:00:07.637Z,16.63
2023-01-23T22:02:37.256Z,15.57
2023-01-23T22:05:00.926Z,16.07
2023-01-23T22:07:24.558Z,16.03
2023-01-23T22:09:48.105Z,16.63
2023-01-23T22:12:11.620Z,16.30
2023-01-23T22:14:36.621Z,16.63
2023-01-23T22:17:00.145Z,17.53
2023-01-23T22:19:25.730Z,16.03
2023-01-23T22:21:49.452Z,17.40
2023-01-23T22:24:13.193Z,17.70
2023-01-23T22:26:36.764Z,16.57
2023-01-23T22:29:00.353Z,17.90
2023-01-23T22:31:25.337Z,16.77
2023-01-23T22:33:49.046Z,17.43
2023-01-23T22:36:17.084Z,17.40
2023-01-23T22:38:40.685Z,19.17
2023-01-23T22:41:06.958Z,17.80
2023-01-23T22:43:30.776Z,17.50
2023-01-23T22:46:07.778Z,16.77
2023-01-23T22:48:32.816Z,17.60
2023-01-23T22:50:56.317Z,19.77
2023-01-23T22:53:19.851Z,18.90
2023-01-23T22:55:43.441Z,17.90
2023-01-23T22:58:07.042Z,18.47
2023-01-23T23:00:30.538Z,19.40
2023-01-23T23:02:54.141Z,18.43
2023-01-23T23:05:19.547Z,19.53
2023-01-23T23:07:43.257Z,18.37
2023-01-23T23:10:08.793Z,19.47
2023-01-23T23:12:32.477Z,19.87
2023-01-23T23:14:55.986Z,20.13
2023-01-23T23:17:19.612Z,19.73
2023-01-23T23:19:43.125Z,19.17
2023-01-23T23:22:08.461Z,20.00
2023-01-23T23:24:32.009Z,18.50
2023-01-23T23:26:55.572Z,19.47
2023-01-23T23:29:19.233Z,20.03
2023-01-23T23:31:42.959Z,20.17
2023-01-23T23:34:06.582Z,19.53
2023-01-23T23:36:30.183Z,19.33
2023-01-23T23:38:56.580Z,19.30
2023-01-23T23:41:20.465Z,19.57
2023-01-23T23:43:44.942Z,20.60
2023-01-23T23:46:10.977Z,20.27
2023-01-23T23:48:36.659Z,19.47
2023-01-23T23:51:02.036Z,20.57
2023-01-23T23:53:25.634Z,20.50
2023-01-23T23:55:51.061Z,20.40
2023-01-23T23:58:15.415Z,19.40
